This is the latest recevied weather packets stored in our database for station/object KE8DDT-7. If no packets are shown the sender has not sent any weather packets the latest 1 day(s).
| Time | Temp. | Humidity | Pressure | Rain* | Wind** | Luminosity | Snow |
|---|---|---|---|---|---|---|---|
| 1778073793 | 8.89° C | 58% | 1003.6 hPa | 0 mm | - | 519 W/m² | - |
| 1778073493 | 8.89° C | 57% | 1003.4 hPa | 0 mm | - | 360 W/m² | - |
| 1778073193 | 8.89° C | 56% | 1003.4 hPa | 0 mm | - | 510 W/m² | - |
| 1778070125 | 6.67° C | 65% | 1002.8 hPa | 0 mm | - | 320 W/m² | - |
| 1778065400 | 6.11° C | 66% | 1002 hPa | 0 mm | - | 23 W/m² | - |
| 1778064199 | 6.11° C | 65% | 1001.7 hPa | 0 mm | - | 9 W/m² | - |
| 1778063596 | 6.67° C | 65% | 1001.5 hPa | 0 mm | - | 0 W/m² | - |
| 1778062998 | 6.67° C | 65% | 1001.3 hPa | 0 mm | - | 0 W/m² | - |
| 1778062697 | 6.67° C | 65% | 1001.4 hPa | 0 mm | - | 0 W/m² | - |
| 1778061197 | 7.22° C | 64% | 1001.4 hPa | 0 mm | - | 0 W/m² | - |
| 1778060081 | 7.22° C | 63% | 1001.1 hPa | 0 mm | - | 0 W/m² | - |
| 1778059781 | 7.22° C | 64% | 1000.9 hPa | 0 mm | - | 0 W/m² | - |
| 1778059181 | 7.22° C | 64% | 1000.8 hPa | 0 mm | - | 0 W/m² | - |
| 1778058882 | 7.22° C | 65% | 1000.8 hPa | 0 mm | - | 0 W/m² | - |
| 1778058581 | 7.22° C | 64% | 1000.8 hPa | 0 mm | - | 0 W/m² | - |
| 1778057981 | 7.22° C | 64% | 1000.9 hPa | 0 mm | - | 0 W/m² | - |
| 1778057681 | 7.22° C | 64% | 1001 hPa | 0 mm | - | 0 W/m² | - |
| 1778057381 | 7.22° C | 64% | 1000.8 hPa | 0 mm | - | 0 W/m² | - |
| 1778056781 | 7.22° C | 64% | 1000.7 hPa | 0 mm | - | 0 W/m² | - |
| 1778056481 | 7.22° C | 63% | 1000.6 hPa | 0 mm | - | 0 W/m² | - |
| 1778056181 | 7.22° C | 64% | 1000.7 hPa | 0 mm | - | 0 W/m² | - |
| 1778055881 | 7.22° C | 63% | 1000.8 hPa | 0 mm | - | 0 W/m² | - |
| 1778054981 | 7.22° C | 64% | 1000.6 hPa | 0 mm | - | 0 W/m² | - |
| 1778054682 | 7.78° C | 64% | 1000.7 hPa | 0 mm | - | 0 W/m² | - |
| 1778054381 | 7.78° C | 63% | 1000.7 hPa | 0 mm | - | 0 W/m² | - |
* Rain latest hour (hover to see other rain measurements)
** Current wind speed in m/s (hover to see current wind gust speed)